sensor_id;sensor_type;location;lat;lon;timestamp;noise_LAeq;noise_LA_min;noise_LA_max;noise_LA01;noise_LA95
64393;Laerm;50712;49.506;10.400;2023-10-19T03:43:26;62.88;55.24;69.62;;
64393;Laerm;50712;49.506;10.400;2023-10-19T03:43:57;62.13;56.09;68.93;;
64393;Laerm;50712;49.506;10.400;2023-10-19T03:45:09;60.56;55.48;66.27;;
64393;Laerm;50712;49.506;10.400;2023-10-19T03:45:45;62.46;55.37;71.05;;
64393;Laerm;50712;49.506;10.400;2023-10-19T03:46:23;63.33;59.64;68.91;;
64393;Laerm;50712;49.506;10.400;2023-10-19T03:46:59;62.05;59.01;67.40;;
64393;Laerm;50712;49.506;10.400;2023-10-19T03:47:34;61.82;58.93;67.22;;
64393;Laerm;50712;49.506;10.400;2023-10-19T03:48:07;61.31;56.58;66.96;;
64393;Laerm;50712;49.506;10.400;2023-10-19T03:48:39;61.04;58.35;71.70;;
64393;Laerm;50712;49.506;10.400;2023-10-19T03:49:10;62.01;58.95;66.21;;
64393;Laerm;50712;49.506;10.400;2023-10-19T03:49:44;61.78;59.13;65.91;;
64393;Laerm;50712;49.506;10.400;2023-10-19T03:50:14;61.18;58.80;65.82;;
64393;Laerm;50712;49.506;10.400;2023-10-19T03:50:50;61.94;58.44;68.09;;
64393;Laerm;50712;49.506;10.400;2023-10-19T03:51:26;63.51;59.81;69.49;;
64393;Laerm;50712;49.506;10.400;2023-10-19T03:51:56;63.99;60.52;69.22;;
64393;Laerm;50712;49.506;10.400;2023-10-19T03:52:36;62.74;58.52;69.27;;
64393;Laerm;50712;49.506;10.400;2023-10-19T03:53:09;62.70;56.79;69.56;;
64393;Laerm;50712;49.506;10.400;2023-10-19T03:53:42;60.90;57.50;64.98;;
64393;Laerm;50712;49.506;10.400;2023-10-19T03:54:25;60.80;57.28;68.04;;
64393;Laerm;50712;49.506;10.400;2023-10-19T03:54:57;62.20;58.44;66.17;;
64393;Laerm;50712;49.506;10.400;2023-10-19T03:55:28;60.14;55.17;71.38;;
64393;Laerm;50712;49.506;10.400;2023-10-19T03:55:59;62.34;53.97;67.68;;
64393;Laerm;50712;49.506;10.400;2023-10-19T03:56:29;58.64;54.10;63.01;;
64393;Laerm;50712;49.506;10.400;2023-10-19T03:57:09;60.25;54.81;66.41;;
64393;Laerm;50712;49.506;10.400;2023-10-19T03:57:42;60.72;54.57;66.52;;
64393;Laerm;50712;49.506;10.400;2023-10-19T03:58:16;55.65;53.67;64.16;;
64393;Laerm;50712;49.506;10.400;2023-10-19T03:59:21;60.06;55.20;65.05;;
64393;Laerm;50712;49.506;10.400;2023-10-19T03:59:51;69.55;55.89;77.22;;
64393;Laerm;50712;49.506;10.400;2023-10-19T04:00:28;75.23;66.48;78.06;;
64393;Laerm;50712;49.506;10.400;2023-10-19T04:01:00;76.52;61.55;79.27;;
64393;Laerm;50712;49.506;10.400;2023-10-19T04:01:31;75.93;61.70;79.68;;
64393;Laerm;50712;49.506;10.400;2023-10-19T04:02:02;76.33;63.75;80.77;;
64393;Laerm;50712;49.506;10.400;2023-10-19T04:02:42;64.57;59.06;76.77;;
64393;Laerm;50712;49.506;10.400;2023-10-19T04:03:12;64.27;58.28;66.95;;
64393;Laerm;50712;49.506;10.400;2023-10-19T04:03:44;65.79;56.27;70.25;;
64393;Laerm;50712;49.506;10.400;2023-10-19T04:04:14;66.22;61.20;69.87;;
64393;Laerm;50712;49.506;10.400;2023-10-19T04:04:47;67.69;59.79;71.13;;
64393;Laerm;50712;49.506;10.400;2023-10-19T04:05:21;67.96;59.60;70.52;;
64393;Laerm;50712;49.506;10.400;2023-10-19T04:05:52;66.93;56.84;69.43;;
64393;Laerm;50712;49.506;10.400;2023-10-19T04:06:23;66.49;59.16;71.17;;
64393;Laerm;50712;49.506;10.400;2023-10-19T04:06:53;62.23;57.24;71.55;;
64393;Laerm;50712;49.506;10.400;2023-10-19T04:07:28;60.78;56.35;64.58;;
64393;Laerm;50712;49.506;10.400;2023-10-19T04:08:01;60.99;57.75;63.71;;
64393;Laerm;50712;49.506;10.400;2023-10-19T04:08:36;61.26;57.50;64.29;;
64393;Laerm;50712;49.506;10.400;2023-10-19T04:09:07;62.83;54.12;67.83;;
64393;Laerm;50712;49.506;10.400;2023-10-19T04:10:27;60.52;53.64;68.14;;
64393;Laerm;50712;49.506;10.400;2023-10-19T04:11:18;61.21;54.90;68.84;;
64393;Laerm;50712;49.506;10.400;2023-10-19T04:12:02;60.88;56.34;68.41;;
64393;Laerm;50712;49.506;10.400;2023-10-19T04:12:35;62.10;56.30;68.96;;
64393;Laerm;50712;49.506;10.400;2023-10-19T04:13:05;67.11;56.42;74.21;;
64393;Laerm;50712;49.506;10.400;2023-10-19T04:13:39;67.42;56.38;76.20;;
64393;Laerm;50712;49.506;10.400;2023-10-19T04:14:10;65.54;55.90;71.23;;
64393;Laerm;50712;49.506;10.400;2023-10-19T04:14:40;62.65;53.71;73.27;;
64393;Laerm;50712;49.506;10.400;2023-10-19T04:15:11;62.97;54.50;73.17;;
64393;Laerm;50712;49.506;10.400;2023-10-19T04:15:52;59.25;54.13;71.13;;
64393;Laerm;50712;49.506;10.400;2023-10-19T04:16:23;69.21;54.44;74.64;;
64393;Laerm;50712;49.506;10.400;2023-10-19T04:16:53;65.84;55.31;73.25;;
64393;Laerm;50712;49.506;10.400;2023-10-19T04:17:26;66.93;58.07;71.97;;
64393;Laerm;50712;49.506;10.400;2023-10-19T04:17:57;61.50;57.91;67.85;;
64393;Laerm;50712;49.506;10.400;2023-10-19T04:18:30;63.45;57.59;68.62;;
64393;Laerm;50712;49.506;10.400;2023-10-19T04:19:00;65.51;62.56;69.72;;
64393;Laerm;50712;49.506;10.400;2023-10-19T04:19:34;65.33;60.02;68.21;;
64393;Laerm;50712;49.506;10.400;2023-10-19T04:20:06;63.83;56.09;69.17;;
64393;Laerm;50712;49.506;10.400;2023-10-19T04:21:00;63.21;56.94;71.99;;
64393;Laerm;50712;49.506;10.400;2023-10-19T04:22:04;64.54;61.83;67.49;;
64393;Laerm;50712;49.506;10.400;2023-10-19T04:22:34;63.44;59.52;67.40;;
64393;Laerm;50712;49.506;10.400;2023-10-19T04:23:05;64.03;61.60;66.86;;
64393;Laerm;50712;49.506;10.400;2023-10-19T04:23:41;63.69;59.78;67.31;;
64393;Laerm;50712;49.506;10.400;2023-10-19T04:24:12;63.40;58.70;67.17;;
64393;Laerm;50712;49.506;10.400;2023-10-19T04:24:43;64.27;60.39;68.48;;
64393;Laerm;50712;49.506;10.400;2023-10-19T04:25:14;62.87;58.91;66.43;;
64393;Laerm;50712;49.506;10.400;2023-10-19T04:25:46;61.87;56.87;65.16;;
64393;Laerm;50712;49.506;10.400;2023-10-19T04:26:16;62.78;59.94;65.80;;
64393;Laerm;50712;49.506;10.400;2023-10-19T04:27:19;61.71;58.21;65.21;;
64393;Laerm;50712;49.506;10.400;2023-10-19T04:27:53;62.24;57.74;65.28;;
64393;Laerm;50712;49.506;10.400;2023-10-19T04:28:24;63.04;61.08;65.68;;
64393;Laerm;50712;49.506;10.400;2023-10-19T04:29:12;62.34;59.52;65.05;;
64393;Laerm;50712;49.506;10.400;2023-10-19T04:29:48;61.35;58.94;63.92;;
64393;Laerm;50712;49.506;10.400;2023-10-19T04:30:19;61.04;55.20;64.59;;
64393;Laerm;50712;49.506;10.400;2023-10-19T04:30:52;61.62;55.62;64.25;;
64393;Laerm;50712;49.506;10.400;2023-10-19T04:31:23;61.89;56.79;66.64;;
64393;Laerm;50712;49.506;10.400;2023-10-19T04:31:53;61.23;54.92;67.68;;
64393;Laerm;50712;49.506;10.400;2023-10-19T04:32:29;61.68;56.34;68.48;;
64393;Laerm;50712;49.506;10.400;2023-10-19T04:33:00;58.81;54.91;63.89;;
64393;Laerm;50712;49.506;10.400;2023-10-19T04:33:32;58.84;55.68;61.19;;
64393;Laerm;50712;49.506;10.400;2023-10-19T04:34:03;58.59;55.53;61.37;;
64393;Laerm;50712;49.506;10.400;2023-10-19T04:34:37;59.26;55.98;67.97;;
64393;Laerm;50712;49.506;10.400;2023-10-19T04:35:07;60.97;53.26;75.02;;
64393;Laerm;50712;49.506;10.400;2023-10-19T04:35:43;63.07;57.23;73.12;;
64393;Laerm;50712;49.506;10.400;2023-10-19T04:36:14;63.46;58.12;69.92;;
64393;Laerm;50712;49.506;10.400;2023-10-19T04:36:44;63.54;57.84;71.22;;
64393;Laerm;50712;49.506;10.400;2023-10-19T04:37:15;68.06;58.15;73.56;;
64393;Laerm;50712;49.506;10.400;2023-10-19T04:37:49;65.11;59.23;69.47;;
64393;Laerm;50712;49.506;10.400;2023-10-19T04:38:20;66.04;62.90;70.69;;
64393;Laerm;50712;49.506;10.400;2023-10-19T04:38:51;66.57;62.29;71.35;;
64393;Laerm;50712;49.506;10.400;2023-10-19T04:39:22;65.71;56.77;72.07;;
64393;Laerm;50712;49.506;10.400;2023-10-19T04:39:52;65.56;57.64;75.32;;
64393;Laerm;50712;49.506;10.400;2023-10-19T04:40:53;64.16;56.25;75.85;;
64393;Laerm;50712;49.506;10.400;2023-10-19T04:41:23;64.83;61.66;68.13;;
64393;Laerm;50712;49.506;10.400;2023-10-19T04:42:00;64.14;57.17;68.22;;
64393;Laerm;50712;49.506;10.400;2023-10-19T04:42:30;64.39;56.01;70.05;;
64393;Laerm;50712;49.506;10.400;2023-10-19T04:43:03;70.56;64.55;77.16;;
64393;Laerm;50712;49.506;10.400;2023-10-19T04:43:36;71.84;64.72;77.22;;
64393;Laerm;50712;49.506;10.400;2023-10-19T04:44:07;70.01;64.05;75.30;;
64393;Laerm;50712;49.506;10.400;2023-10-19T04:44:40;70.39;64.18;75.48;;
64393;Laerm;50712;49.506;10.400;2023-10-19T04:45:11;68.47;62.28;76.86;;
64393;Laerm;50712;49.506;10.400;2023-10-19T04:45:42;67.43;60.71;69.75;;
64393;Laerm;50712;49.506;10.400;2023-10-19T04:46:14;65.76;59.20;70.57;;
64393;Laerm;50712;49.506;10.400;2023-10-19T04:46:45;65.17;61.86;68.87;;
64393;Laerm;50712;49.506;10.400;2023-10-19T04:47:16;64.03;59.73;68.28;;
64393;Laerm;50712;49.506;10.400;2023-10-19T04:47:50;63.81;59.09;68.75;;
64393;Laerm;50712;49.506;10.400;2023-10-19T04:48:22;67.73;58.79;72.47;;
64393;Laerm;50712;49.506;10.400;2023-10-19T04:48:53;68.16;63.48;73.12;;
64393;Laerm;50712;49.506;10.400;2023-10-19T04:49:23;60.52;54.43;66.86;;
64393;Laerm;50712;49.506;10.400;2023-10-19T04:49:53;59.41;53.30;67.70;;
64393;Laerm;50712;49.506;10.400;2023-10-19T04:50:24;64.78;54.10;69.35;;
64393;Laerm;50712;49.506;10.400;2023-10-19T04:50:54;67.98;60.92;71.58;;
64393;Laerm;50712;49.506;10.400;2023-10-19T04:51:25;63.77;54.38;72.09;;
64393;Laerm;50712;49.506;10.400;2023-10-19T04:51:55;58.61;53.43;65.32;;
64393;Laerm;50712;49.506;10.400;2023-10-19T04:52:25;60.53;54.40;65.12;;
64393;Laerm;50712;49.506;10.400;2023-10-19T04:52:55;61.08;56.18;64.69;;
64393;Laerm;50712;49.506;10.400;2023-10-19T04:53:26;62.00;59.62;64.42;;
64393;Laerm;50712;49.506;10.400;2023-10-19T04:53:56;61.44;58.89;64.02;;
64393;Laerm;50712;49.506;10.400;2023-10-19T04:54:27;61.31;56.99;67.85;;
64393;Laerm;50712;49.506;10.400;2023-10-19T04:54:57;60.72;57.43;64.26;;
64393;Laerm;50712;49.506;10.400;2023-10-19T04:55:30;62.77;56.93;65.79;;
64393;Laerm;50712;49.506;10.400;2023-10-19T04:56:00;62.71;58.44;67.26;;
64393;Laerm;50712;49.506;10.400;2023-10-19T04:56:31;64.59;60.26;70.77;;
64393;Laerm;50712;49.506;10.400;2023-10-19T04:57:02;64.18;60.53;68.13;;
64393;Laerm;50712;49.506;10.400;2023-10-19T04:57:32;65.94;59.85;71.15;;
64393;Laerm;50712;49.506;10.400;2023-10-19T04:58:03;62.37;59.67;64.89;;
64393;Laerm;50712;49.506;10.400;2023-10-19T04:58:33;62.40;57.78;67.23;;
64393;Laerm;50712;49.506;10.400;2023-10-19T04:59:04;63.04;58.45;67.62;;
64393;Laerm;50712;49.506;10.400;2023-10-19T04:59:34;65.27;59.50;72.19;;
64393;Laerm;50712;49.506;10.400;2023-10-19T05:00:05;65.39;61.59;68.88;;
64393;Laerm;50712;49.506;10.400;2023-10-19T05:00:36;63.17;59.00;66.52;;
64393;Laerm;50712;49.506;10.400;2023-10-19T05:01:06;62.22;58.66;65.13;;
64393;Laerm;50712;49.506;10.400;2023-10-19T05:01:37;61.06;54.14;63.51;;
64393;Laerm;50712;49.506;10.400;2023-10-19T05:02:07;57.68;52.36;70.69;;
64393;Laerm;50712;49.506;10.400;2023-10-19T05:02:38;57.41;51.99;65.95;;
64393;Laerm;50712;49.506;10.400;2023-10-19T05:03:08;56.48;52.37;61.53;;
64393;Laerm;50712;49.506;10.400;2023-10-19T05:03:38;56.28;52.14;61.13;;
64393;Laerm;50712;49.506;10.400;2023-10-19T05:04:09;56.13;53.29;60.14;;
64393;Laerm;50712;49.506;10.400;2023-10-19T05:04:39;56.02;52.17;58.97;;
64393;Laerm;50712;49.506;10.400;2023-10-19T05:05:10;56.45;52.18;59.79;;
64393;Laerm;50712;49.506;10.400;2023-10-19T05:05:41;56.41;52.22;62.44;;
64393;Laerm;50712;49.506;10.400;2023-10-19T05:06:11;57.72;54.45;61.01;;
64393;Laerm;50712;49.506;10.400;2023-10-19T05:06:42;57.89;54.72;60.89;;
64393;Laerm;50712;49.506;10.400;2023-10-19T05:07:13;59.17;55.49;69.85;;
64393;Laerm;50712;49.506;10.400;2023-10-19T05:07:46;56.71;52.58;60.43;;
64393;Laerm;50712;49.506;10.400;2023-10-19T05:08:17;55.08;52.00;59.85;;
64393;Laerm;50712;49.506;10.400;2023-10-19T05:08:47;60.87;54.71;66.03;;
64393;Laerm;50712;49.506;10.400;2023-10-19T05:09:18;63.69;55.69;68.03;;
64393;Laerm;50712;49.506;10.400;2023-10-19T05:10:23;63.17;57.43;66.90;;
64393;Laerm;50712;49.506;10.400;2023-10-19T05:10:56;63.21;58.76;71.26;;
64393;Laerm;50712;49.506;10.400;2023-10-19T05:11:26;63.66;59.22;69.76;;
64393;Laerm;50712;49.506;10.400;2023-10-19T05:11:57;65.62;56.90;68.66;;
64393;Laerm;50712;49.506;10.400;2023-10-19T05:12:27;65.74;62.48;69.31;;
64393;Laerm;50712;49.506;10.400;2023-10-19T05:12:57;63.90;57.57;68.97;;
64393;Laerm;50712;49.506;10.400;2023-10-19T05:13:31;60.41;57.44;66.31;;
64393;Laerm;50712;49.506;10.400;2023-10-19T05:14:02;61.25;53.56;65.17;;
64393;Laerm;50712;49.506;10.400;2023-10-19T05:14:35;61.66;55.75;67.87;;
64393;Laerm;50712;49.506;10.400;2023-10-19T05:15:06;59.33;53.91;64.48;;
64393;Laerm;50712;49.506;10.400;2023-10-19T05:15:36;58.80;53.16;62.65;;
64393;Laerm;50712;49.506;10.400;2023-10-19T05:16:07;58.45;53.04;62.99;;
64393;Laerm;50712;49.506;10.400;2023-10-19T05:16:37;58.03;53.26;66.42;;
64393;Laerm;50712;49.506;10.400;2023-10-19T05:17:08;59.30;53.20;69.83;;
64393;Laerm;50712;49.506;10.400;2023-10-19T05:17:42;60.15;54.54;66.46;;
64393;Laerm;50712;49.506;10.400;2023-10-19T05:18:12;62.26;57.08;66.88;;
64393;Laerm;50712;49.506;10.400;2023-10-19T05:19:14;63.18;56.66;70.74;;
64393;Laerm;50712;49.506;10.400;2023-10-19T05:19:44;62.28;56.66;76.10;;
64393;Laerm;50712;49.506;10.400;2023-10-19T05:20:14;60.83;56.93;64.41;;
64393;Laerm;50712;49.506;10.400;2023-10-19T05:20:45;60.87;55.95;65.35;;
64393;Laerm;50712;49.506;10.400;2023-10-19T05:21:16;60.73;57.49;64.74;;
64393;Laerm;50712;49.506;10.400;2023-10-19T05:21:46;61.46;54.69;66.68;;
64393;Laerm;50712;49.506;10.400;2023-10-19T05:22:16;65.77;57.37;70.37;;
64393;Laerm;50712;49.506;10.400;2023-10-19T05:22:47;63.81;59.62;67.28;;
64393;Laerm;50712;49.506;10.400;2023-10-19T05:23:17;60.95;56.63;67.49;;
64393;Laerm;50712;49.506;10.400;2023-10-19T05:23:50;65.52;57.66;70.86;;
64393;Laerm;50712;49.506;10.400;2023-10-19T05:24:20;65.19;56.27;73.39;;
64393;Laerm;50712;49.506;10.400;2023-10-19T05:24:50;65.10;53.70;73.55;;
64393;Laerm;50712;49.506;10.400;2023-10-19T05:25:21;60.16;54.87;67.38;;
64393;Laerm;50712;49.506;10.400;2023-10-19T05:26:03;59.68;52.74;74.00;;
64393;Laerm;50712;49.506;10.400;2023-10-19T05:26:33;59.56;54.31;63.88;;
64393;Laerm;50712;49.506;10.400;2023-10-19T05:27:04;63.56;56.54;68.86;;
64393;Laerm;50712;49.506;10.400;2023-10-19T05:28:05;58.61;55.25;63.57;;
64393;Laerm;50712;49.506;10.400;2023-10-19T05:28:36;59.11;54.22;66.45;;
64393;Laerm;50712;49.506;10.400;2023-10-19T05:29:06;60.64;54.51;74.16;;
64393;Laerm;50712;49.506;10.400;2023-10-19T05:30:07;59.58;55.88;63.01;;
64393;Laerm;50712;49.506;10.400;2023-10-19T05:30:40;60.50;56.83;66.44;;
64393;Laerm;50712;49.506;10.400;2023-10-19T05:31:10;59.55;55.00;67.13;;
64393;Laerm;50712;49.506;10.400;2023-10-19T05:31:42;58.36;54.76;65.92;;
64393;Laerm;50712;49.506;10.400;2023-10-19T05:32:12;59.73;56.04;63.79;;
64393;Laerm;50712;49.506;10.400;2023-10-19T05:32:42;61.39;55.69;68.10;;
64393;Laerm;50712;49.506;10.400;2023-10-19T05:33:13;59.55;53.66;63.45;;
64393;Laerm;50712;49.506;10.400;2023-10-19T05:33:43;60.25;55.34;64.86;;
64393;Laerm;50712;49.506;10.400;2023-10-19T05:34:13;60.93;55.67;64.40;;
64393;Laerm;50712;49.506;10.400;2023-10-19T05:34:46;60.31;55.89;64.63;;
64393;Laerm;50712;49.506;10.400;2023-10-19T05:35:17;61.94;54.79;72.03;;
64393;Laerm;50712;49.506;10.400;2023-10-19T05:35:53;62.13;55.48;69.73;;
64393;Laerm;50712;49.506;10.400;2023-10-19T05:36:23;59.20;55.22;69.95;;
64393;Laerm;50712;49.506;10.400;2023-10-19T05:36:55;59.06;55.07;68.41;;
64393;Laerm;50712;49.506;10.400;2023-10-19T05:37:28;60.13;55.44;65.37;;
64393;Laerm;50712;49.506;10.400;2023-10-19T05:37:59;60.63;55.84;67.94;;
64393;Laerm;50712;49.506;10.400;2023-10-19T05:38:31;64.52;55.19;70.91;;
64393;Laerm;50712;49.506;10.400;2023-10-19T05:39:34;61.21;56.09;65.12;;
64393;Laerm;50712;49.506;10.400;2023-10-19T05:40:06;60.68;54.84;67.63;;
64393;Laerm;50712;49.506;10.400;2023-10-19T05:40:43;62.68;57.75;70.39;;
64393;Laerm;50712;49.506;10.400;2023-10-19T05:41:13;61.18;56.19;66.31;;
64393;Laerm;50712;49.506;10.400;2023-10-19T05:41:44;60.25;54.93;66.61;;
64393;Laerm;50712;49.506;10.400;2023-10-19T05:42:17;62.00;58.23;70.13;;
64393;Laerm;50712;49.506;10.400;2023-10-19T05:42:48;62.30;59.53;65.86;;
64393;Laerm;50712;49.506;10.400;2023-10-19T05:43:18;62.25;58.64;65.05;;
64393;Laerm;50712;49.506;10.400;2023-10-19T05:43:48;61.66;54.33;71.24;;
64393;Laerm;50712;49.506;10.400;2023-10-19T05:44:21;58.45;49.82;66.78;;
64393;Laerm;50712;49.506;10.400;2023-10-19T05:44:54;57.38;50.74;63.66;;
64393;Laerm;50712;49.506;10.400;2023-10-19T05:45:25;57.77;51.74;64.76;;
64393;Laerm;50712;49.506;10.400;2023-10-19T05:45:56;61.34;52.26;70.76;;
64393;Laerm;50712;49.506;10.400;2023-10-19T05:46:27;64.71;59.65;71.06;;
64393;Laerm;50712;49.506;10.400;2023-10-19T05:46:59;64.21;60.45;68.42;;
64393;Laerm;50712;49.506;10.400;2023-10-19T05:47:29;64.82;60.18;67.98;;
64393;Laerm;50712;49.506;10.400;2023-10-19T05:48:00;65.92;59.77;70.86;;
64393;Laerm;50712;49.506;10.400;2023-10-19T05:48:31;63.55;57.00;66.86;;
64393;Laerm;50712;49.506;10.400;2023-10-19T05:49:02;62.91;58.66;65.58;;
64393;Laerm;50712;49.506;10.400;2023-10-19T05:49:34;63.18;59.36;65.70;;
64393;Laerm;50712;49.506;10.400;2023-10-19T05:50:04;67.83;59.93;72.87;;
64393;Laerm;50712;49.506;10.400;2023-10-19T05:50:35;62.78;55.16;71.71;;
64393;Laerm;50712;49.506;10.400;2023-10-19T05:51:06;58.85;52.98;70.15;;
64393;Laerm;50712;49.506;10.400;2023-10-19T05:51:36;59.42;53.86;67.31;;
64393;Laerm;50712;49.506;10.400;2023-10-19T05:52:07;58.58;53.65;67.83;;
64393;Laerm;50712;49.506;10.400;2023-10-19T05:53:08;62.78;55.18;71.65;;
64393;Laerm;50712;49.506;10.400;2023-10-19T05:53:38;63.27;55.97;74.17;;
64393;Laerm;50712;49.506;10.400;2023-10-19T05:54:08;61.90;56.21;73.64;;
64393;Laerm;50712;49.506;10.400;2023-10-19T05:54:39;63.52;54.17;74.16;;
64393;Laerm;50712;49.506;10.400;2023-10-19T05:55:10;71.64;53.79;78.22;;
64393;Laerm;50712;49.506;10.400;2023-10-19T05:55:41;70.03;55.24;78.28;;
64393;Laerm;50712;49.506;10.400;2023-10-19T05:56:11;61.55;52.87;73.88;;
64393;Laerm;50712;49.506;10.400;2023-10-19T05:56:41;62.33;53.30;67.65;;
64393;Laerm;50712;49.506;10.400;2023-10-19T05:57:12;61.55;52.94;67.79;;
64393;Laerm;50712;49.506;10.400;2023-10-19T05:57:42;61.41;53.96;67.24;;
64393;Laerm;50712;49.506;10.400;2023-10-19T05:58:12;60.51;54.41;73.21;;
64393;Laerm;50712;49.506;10.400;2023-10-19T05:58:43;57.00;53.68;61.14;;
64393;Laerm;50712;49.506;10.400;2023-10-19T05:59:14;57.33;53.69;65.49;;
64393;Laerm;50712;49.506;10.400;2023-10-19T05:59:46;56.49;52.84;63.21;;
64393;Laerm;50712;49.506;10.400;2023-10-19T06:00:16;61.43;55.18;68.82;;
64393;Laerm;50712;49.506;10.400;2023-10-19T06:00:48;60.08;52.75;67.94;;
64393;Laerm;50712;49.506;10.400;2023-10-19T06:01:23;55.92;51.57;63.19;;
64393;Laerm;50712;49.506;10.400;2023-10-19T06:01:53;54.58;51.57;62.32;;
64393;Laerm;50712;49.506;10.400;2023-10-19T06:02:23;56.79;51.97;68.19;;
64393;Laerm;50712;49.506;10.400;2023-10-19T06:02:54;62.01;54.80;69.96;;
64393;Laerm;50712;49.506;10.400;2023-10-19T06:03:24;63.17;56.14;69.00;;
64393;Laerm;50712;49.506;10.400;2023-10-19T06:03:54;62.05;56.23;71.88;;
64393;Laerm;50712;49.506;10.400;2023-10-19T06:04:26;63.41;54.80;73.79;;
64393;Laerm;50712;49.506;10.400;2023-10-19T06:04:56;61.68;54.43;71.70;;
64393;Laerm;50712;49.506;10.400;2023-10-19T06:05:27;66.17;52.46;71.87;;
64393;Laerm;50712;49.506;10.400;2023-10-19T06:05:57;56.63;51.37;67.57;;
64393;Laerm;50712;49.506;10.400;2023-10-19T06:06:28;61.85;51.29;70.46;;
64393;Laerm;50712;49.506;10.400;2023-10-19T06:07:04;63.57;52.98;73.75;;
64393;Laerm;50712;49.506;10.400;2023-10-19T06:07:35;74.34;56.36;79.02;;
64393;Laerm;50712;49.506;10.400;2023-10-19T06:08:05;69.41;54.62;78.49;;
64393;Laerm;50712;49.506;10.400;2023-10-19T06:08:35;63.03;55.23;73.66;;
64393;Laerm;50712;49.506;10.400;2023-10-19T06:09:06;60.01;54.18;68.15;;
64393;Laerm;50712;49.506;10.400;2023-10-19T06:09:39;60.08;53.47;68.42;;
64393;Laerm;50712;49.506;10.400;2023-10-19T06:10:13;61.52;55.44;69.25;;
64393;Laerm;50712;49.506;10.400;2023-10-19T06:10:50;62.33;53.10;67.20;;
64393;Laerm;50712;49.506;10.400;2023-10-19T06:11:21;60.56;51.59;65.38;;
64393;Laerm;50712;49.506;10.400;2023-10-19T06:11:51;61.70;54.17;66.18;;
64393;Laerm;50712;49.506;10.400;2023-10-19T06:12:24;61.35;55.95;67.55;;
64393;Laerm;50712;49.506;10.400;2023-10-19T06:12:54;59.10;53.10;66.31;;
64393;Laerm;50712;49.506;10.400;2023-10-19T06:13:24;59.84;53.98;63.15;;
64393;Laerm;50712;49.506;10.400;2023-10-19T06:13:55;60.36;54.07;67.30;;
64393;Laerm;50712;49.506;10.400;2023-10-19T06:14:25;59.17;53.73;62.72;;
64393;Laerm;50712;49.506;10.400;2023-10-19T06:14:55;59.60;54.97;64.20;;
64393;Laerm;50712;49.506;10.400;2023-10-19T06:15:26;60.76;54.55;64.33;;
64393;Laerm;50712;49.506;10.400;2023-10-19T06:15:58;59.05;51.33;72.44;;
64393;Laerm;50712;49.506;10.400;2023-10-19T06:16:29;58.56;54.45;62.10;;
64393;Laerm;50712;49.506;10.400;2023-10-19T06:16:59;58.40;54.43;62.02;;
64393;Laerm;50712;49.506;10.400;2023-10-19T06:17:31;56.48;52.72;64.42;;
64393;Laerm;50712;49.506;10.400;2023-10-19T06:18:01;58.13;51.81;69.04;;
64393;Laerm;50712;49.506;10.400;2023-10-19T06:18:33;61.98;52.19;67.25;;
64393;Laerm;50712;49.506;10.400;2023-10-19T06:19:04;58.02;52.93;63.81;;
64393;Laerm;50712;49.506;10.400;2023-10-19T06:19:35;60.76;53.08;63.34;;
64393;Laerm;50712;49.506;10.400;2023-10-19T06:20:07;59.47;54.08;63.84;;
64393;Laerm;50712;49.506;10.400;2023-10-19T06:21:17;62.24;56.13;66.70;;
64393;Laerm;50712;49.506;10.400;2023-10-19T06:21:50;58.99;53.50;69.14;;
64393;Laerm;50712;49.506;10.400;2023-10-19T06:22:21;58.01;54.21;64.08;;
64393;Laerm;50712;49.506;10.400;2023-10-19T06:22:53;58.06;53.69;66.76;;
64393;Laerm;50712;49.506;10.400;2023-10-19T06:23:24;60.20;54.17;67.57;;
64393;Laerm;50712;49.506;10.400;2023-10-19T06:23:54;58.36;54.14;65.61;;
64393;Laerm;50712;49.506;10.400;2023-10-19T06:24:25;58.16;53.45;63.81;;
64393;Laerm;50712;49.506;10.400;2023-10-19T06:24:55;59.58;55.30;66.17;;
64393;Laerm;50712;49.506;10.400;2023-10-19T06:25:26;58.61;53.78;64.34;;
64393;Laerm;50712;49.506;10.400;2023-10-19T06:26:11;60.44;53.03;65.34;;
64393;Laerm;50712;49.506;10.400;2023-10-19T06:26:42;61.05;55.74;65.49;;
64393;Laerm;50712;49.506;10.400;2023-10-19T06:27:13;60.99;56.72;66.13;;
64393;Laerm;50712;49.506;10.400;2023-10-19T06:27:44;59.80;53.19;66.48;;
64393;Laerm;50712;49.506;10.400;2023-10-19T06:28:15;57.34;53.11;62.74;;
64393;Laerm;50712;49.506;10.400;2023-10-19T06:28:45;59.23;52.49;64.57;;
64393;Laerm;50712;49.506;10.400;2023-10-19T06:29:16;61.01;57.60;64.08;;
64393;Laerm;50712;49.506;10.400;2023-10-19T06:29:46;59.87;56.95;63.12;;
64393;Laerm;50712;49.506;10.400;2023-10-19T06:30:48;59.66;56.94;63.21;;
64393;Laerm;50712;49.506;10.400;2023-10-19T06:31:20;60.23;55.29;64.15;;
64393;Laerm;50712;49.506;10.400;2023-10-19T06:31:50;59.55;56.79;62.30;;
64393;Laerm;50712;49.506;10.400;2023-10-19T06:32:20;59.12;56.72;65.29;;
64393;Laerm;50712;49.506;10.400;2023-10-19T06:32:56;59.68;56.61;62.68;;
64393;Laerm;50712;49.506;10.400;2023-10-19T06:33:33;60.78;55.25;63.81;;
64393;Laerm;50712;49.506;10.400;2023-10-19T06:34:03;61.66;57.95;64.33;;
64393;Laerm;50712;49.506;10.400;2023-10-19T06:34:34;61.35;57.87;64.25;;
64393;Laerm;50712;49.506;10.400;2023-10-19T06:35:05;59.62;56.67;63.65;;
64393;Laerm;50712;49.506;10.400;2023-10-19T06:35:36;58.88;54.14;63.28;;
64393;Laerm;50712;49.506;10.400;2023-10-19T06:36:07;57.80;53.90;62.82;;
64393;Laerm;50712;49.506;10.400;2023-10-19T06:36:37;59.02;55.28;62.88;;
64393;Laerm;50712;49.506;10.400;2023-10-19T06:37:08;58.60;54.40;62.39;;
64393;Laerm;50712;49.506;10.400;2023-10-19T06:37:40;58.24;54.14;61.64;;
64393;Laerm;50712;49.506;10.400;2023-10-19T06:38:10;58.52;54.70;61.35;;
64393;Laerm;50712;49.506;10.400;2023-10-19T06:38:41;58.11;53.77;60.66;;
64393;Laerm;50712;49.506;10.400;2023-10-19T06:39:12;57.34;52.08;64.26;;
64393;Laerm;50712;49.506;10.400;2023-10-19T06:39:43;56.15;52.96;63.47;;
64393;Laerm;50712;49.506;10.400;2023-10-19T06:40:15;57.42;53.63;62.31;;
64393;Laerm;50712;49.506;10.400;2023-10-19T06:40:47;58.50;53.28;65.99;;
64393;Laerm;50712;49.506;10.400;2023-10-19T06:41:17;60.43;57.21;63.25;;
64393;Laerm;50712;49.506;10.400;2023-10-19T06:41:48;59.64;55.83;64.93;;
64393;Laerm;50712;49.506;10.400;2023-10-19T06:42:19;60.00;56.78;63.44;;
64393;Laerm;50712;49.506;10.400;2023-10-19T06:42:50;59.80;57.16;64.46;;
64393;Laerm;50712;49.506;10.400;2023-10-19T06:43:20;57.74;51.15;64.63;;
64393;Laerm;50712;49.506;10.400;2023-10-19T06:43:53;57.45;53.43;62.96;;
64393;Laerm;50712;49.506;10.400;2023-10-19T06:44:24;57.20;53.00;63.48;;
64393;Laerm;50712;49.506;10.400;2023-10-19T06:44:56;58.94;53.88;64.29;;
64393;Laerm;50712;49.506;10.400;2023-10-19T06:45:27;58.50;53.49;64.03;;
64393;Laerm;50712;49.506;10.400;2023-10-19T06:45:57;58.85;53.69;64.17;;
64393;Laerm;50712;49.506;10.400;2023-10-19T06:46:27;59.92;52.98;65.09;;